Time;durP1;ratioP1;P1;durP2;ratioP2;P2;SDS_P1;SDS_P2;PMS_P1;PMS_P2;Temp;Humidity;BMP_temperature;BMP_pressure;BME280_temperature;BME280_humidity;BME280_pressure;Samples;Min_cycle;Max_cycle;Signal;HPM_P1;HPM_P2
2022/04/14 00:02:05;;;;;;;2.75;0.50;;;;;;;19.13;49.16;100868.59;4965406;28;20034;-48
2022/04/14 00:04:35;;;;;;;1.30;0.47;;;;;;;19.14;49.16;100867.56;4966217;28;20034;-48
2022/04/14 00:07:01;;;;;;;2.45;0.57;;;;;;;19.14;48.99;100859.66;4968425;28;20026;-49
2022/04/14 00:09:27;;;;;;;1.20;0.40;;;;;;;19.13;49.11;100858.84;4967645;28;20245;-55
2022/04/14 00:11:52;;;;;;;1.77;0.50;;;;;;;19.13;48.87;100856.19;4976288;28;20419;-47
2022/04/14 00:14:18;;;;;;;4.10;0.50;;;;;;;19.13;49.01;100860.66;4946759;28;20087;-48
2022/04/14 00:16:43;;;;;;;0.95;0.50;;;;;;;19.12;48.92;100845.81;4965441;28;20109;-48
2022/04/14 00:19:09;;;;;;;2.45;0.50;;;;;;;19.12;48.92;100857.19;4963771;28;20106;-45
2022/04/14 00:21:35;;;;;;;1.95;0.40;;;;;;;19.12;48.86;100845.81;4966533;28;20049;-54
2022/04/14 00:24:00;;;;;;;3.63;0.50;;;;;;;19.12;48.99;100845.81;4966233;28;20181;-45
2022/04/14 00:26:26;;;;;;;3.28;0.30;;;;;;;19.12;49.00;100846.63;4965703;28;20390;-48
2022/04/14 00:28:51;;;;;;;3.13;0.70;;;;;;;19.12;48.99;100841.34;4962910;28;20042;-53
2022/04/14 00:31:16;;;;;;;1.08;0.50;;;;;;;19.12;48.97;100840.53;4965806;28;20566;-45
2022/04/14 00:33:42;;;;;;;3.03;0.50;;;;;;;19.13;48.95;100831.59;4964345;28;20717;-53
2022/04/14 00:36:07;;;;;;;1.02;0.40;;;;;;;19.13;48.78;100836.88;4963669;28;20031;-45
2022/04/14 00:38:33;;;;;;;1.13;0.40;;;;;;;19.14;48.62;100838.53;4965393;28;20234;-44
2022/04/14 00:40:59;;;;;;;1.30;0.52;;;;;;;19.15;48.57;100840.16;4961593;28;20030;-46
2022/04/14 00:43:32;;;;;;;1.70;0.40;;;;;;;19.14;48.63;100834.06;4964188;28;20125;-51
2022/04/14 00:45:59;;;;;;;1.33;0.55;;;;;;;19.15;48.46;100835.69;4962445;28;20035;-51
2022/04/14 00:48:25;;;;;;;0.80;0.43;;;;;;;19.16;48.30;100839.16;4963447;28;20058;-47
2022/04/14 00:50:51;;;;;;;2.70;0.50;;;;;;;19.16;48.35;100841.78;4964865;28;20077;-46
2022/04/14 00:53:16;;;;;;;1.70;0.47;;;;;;;19.16;48.57;100841.78;4966799;28;20066;-52
2022/04/14 00:55:42;;;;;;;1.60;0.40;;;;;;;19.16;48.45;100850.53;4961699;28;20031;-51
2022/04/14 00:58:08;;;;;;;2.58;0.40;;;;;;;19.15;48.36;100848.06;4962254;28;20548;-49
2022/04/14 01:00:33;;;;;;;0.80;0.40;;;;;;;19.13;48.23;100843.00;4959812;28;20042;-51
2022/04/14 01:03:00;;;;;;;1.23;0.30;;;;;;;19.14;48.19;100841.97;4965474;28;20027;-52
2022/04/14 01:05:26;;;;;;;1.40;0.40;;;;;;;19.13;48.17;100837.69;4968702;28;20509;-51
2022/04/14 01:07:52;;;;;;;4.93;0.50;;;;;;;19.13;48.25;100842.16;4968558;28;20066;-49
2022/04/14 01:10:18;;;;;;;1.80;0.40;;;;;;;19.13;48.22;100852.72;4966347;28;20085;-51
2022/04/14 01:12:43;;;;;;;1.27;0.40;;;;;;;19.13;48.23;100844.81;4969435;28;20050;-54
2022/04/14 01:15:13;;;;;;;1.73;0.30;;;;;;;19.10;48.25;100848.66;4968006;28;20031;-52
2022/04/14 01:17:40;;;;;;;1.23;0.40;;;;;;;19.11;48.06;100847.66;4967775;28;20117;-50
2022/04/14 01:20:08;;;;;;;1.75;0.40;;;;;;;19.11;48.33;100850.28;4963319;28;20046;-53
2022/04/14 01:22:43;;;;;;;1.00;0.25;;;;;;;19.10;48.31;100858.41;4968187;28;20031;-53
2022/04/14 01:25:08;;;;;;;1.65;0.40;;;;;;;19.10;48.27;100855.75;4967321;28;20045;-44
2022/04/14 01:27:34;;;;;;;3.65;0.90;;;;;;;19.09;48.31;100851.47;4964635;28;20067;-49
2022/04/14 01:30:03;;;;;;;1.52;0.40;;;;;;;19.09;48.36;100856.75;4967208;28;20030;-52
2022/04/14 01:32:28;;;;;;;1.00;0.30;;;;;;;19.09;48.16;100862.03;4963274;28;20096;-50
2022/04/14 01:34:54;;;;;;;0.93;0.40;;;;;;;19.07;48.26;100864.88;4964162;28;20027;-47
2022/04/14 01:37:19;;;;;;;2.30;0.40;;;;;;;19.07;48.30;100864.06;4968557;28;20089;-51
2022/04/14 01:39:45;;;;;;;1.52;0.38;;;;;;;19.07;48.34;100854.31;4966612;28;20035;-51
2022/04/14 01:42:11;;;;;;;0.77;0.30;;;;;;;19.06;48.22;100857.97;4967808;28;20022;-51
2022/04/14 01:44:36;;;;;;;2.05;0.50;;;;;;;19.07;48.24;100858.78;4966881;28;20074;-50
2022/04/14 01:47:02;;;;;;;1.20;0.40;;;;;;;19.04;48.25;100856.50;4964304;28;20087;-54
2022/04/14 01:49:28;;;;;;;1.40;0.30;;;;;;;19.05;48.11;100856.31;4969930;28;20041;-51
2022/04/14 01:51:53;;;;;;;0.82;0.30;;;;;;;19.04;48.26;100859.97;4970170;28;20480;-48
2022/04/14 01:54:19;;;;;;;1.17;0.30;;;;;;;19.04;48.08;100864.44;4969513;28;20097;-54
2022/04/14 01:56:46;;;;;;;2.72;0.50;;;;;;;19.03;48.19;100863.63;4969325;28;20065;-54
2022/04/14 01:59:11;;;;;;;2.40;0.40;;;;;;;19.04;48.28;100867.06;4970205;28;20089;-51
2022/04/14 02:01:37;;;;;;;2.30;0.40;;;;;;;19.02;48.23;100869.91;4971712;28;20030;-54
2022/04/14 02:04:03;;;;;;;0.82;0.30;;;;;;;19.03;48.36;100868.09;4970475;28;20055;-48
2022/04/14 02:06:29;;;;;;;1.58;0.40;;;;;;;19.03;48.42;100870.72;4970510;28;20037;-54
2022/04/14 02:08:55;;;;;;;1.08;0.32;;;;;;;19.03;48.38;100865.44;4966944;28;20037;-52
2022/04/14 02:11:21;;;;;;;1.67;0.35;;;;;;;19.02;48.44;100872.53;5173055;23;20073;-48
2022/04/14 02:13:46;;;;;;;0.90;0.50;;;;;;;19.03;48.29;100866.25;4987829;28;20058;-48
2022/04/14 02:16:12;;;;;;;1.70;0.40;;;;;;;19.03;48.47;100866.25;5003426;28;20517;-54
2022/04/14 02:18:37;;;;;;;0.90;0.30;;;;;;;19.04;48.42;100864.44;4989576;28;20034;-45
2022/04/14 02:21:03;;;;;;;1.00;0.40;;;;;;;19.03;48.30;100862.81;4989547;28;20509;-48
2022/04/14 02:23:28;;;;;;;1.52;0.40;;;;;;;19.03;48.20;100860.16;4989427;28;20070;-50
2022/04/14 02:25:53;;;;;;;2.95;0.38;;;;;;;19.02;48.18;100858.53;4989718;28;20118;-52
2022/04/14 02:28:19;;;;;;;1.52;0.30;;;;;;;19.02;48.08;100855.88;4989800;28;20486;-48
2022/04/14 02:30:46;;;;;;;1.40;0.30;;;;;;;19.03;48.21;100860.16;4989690;28;20037;-50
2022/04/14 02:33:11;;;;;;;1.10;0.50;;;;;;;19.04;47.97;100854.69;4989671;28;20151;-54
2022/04/14 02:35:37;;;;;;;1.60;0.40;;;;;;;19.04;47.91;100851.22;4989759;28;20386;-52
2022/04/14 02:38:02;;;;;;;6.10;0.40;;;;;;;19.05;47.73;100853.69;4989606;28;20658;-51
2022/04/14 02:40:27;;;;;;;1.38;0.40;;;;;;;19.06;47.71;100857.97;4989396;28;20404;-50
2022/04/14 02:42:54;;;;;;;2.28;0.40;;;;;;;19.06;47.55;100852.69;4989231;28;20422;-51
2022/04/14 02:45:27;;;;;;;2.35;0.45;;;;;;;19.06;47.36;100851.84;4989296;28;20042;-50
2022/04/14 02:47:53;;;;;;;2.17;0.40;;;;;;;19.07;47.34;100853.50;4989510;28;20030;-50
2022/04/14 02:50:20;;;;;;;1.17;0.50;;;;;;;19.07;47.45;100856.13;5003942;28;20057;-45
2022/04/14 02:52:50;;;;;;;2.08;0.50;;;;;;;19.07;47.35;100858.78;4987725;28;20195;-48
2022/04/14 02:55:17;;;;;;;1.80;0.57;;;;;;;19.07;47.32;100858.78;4989095;28;20109;-47
2022/04/14 02:57:43;;;;;;;1.48;0.47;;;;;;;19.08;47.29;100855.94;4989275;28;20014;-48
2022/04/14 03:00:10;;;;;;;1.30;0.50;;;;;;;19.07;47.27;100861.41;4988920;28;20038;-48
2022/04/14 03:02:39;;;;;;;2.88;0.52;;;;;;;19.07;47.17;100866.69;4989228;28;20033;-45
2022/04/14 03:05:05;;;;;;;2.25;0.50;;;;;;;19.06;47.10;100865.88;4988913;28;20034;-47
2022/04/14 03:07:31;;;;;;;2.15;0.47;;;;;;;19.04;47.12;100862.63;4988794;28;20042;-48
2022/04/14 03:09:57;;;;;;;1.02;0.40;;;;;;;19.04;47.16;100864.44;4988843;28;20034;-49
2022/04/14 03:12:22;;;;;;;2.97;0.50;;;;;;;19.03;47.35;100858.34;4988576;28;20050;-53
2022/04/14 03:14:49;;;;;;;1.58;0.30;;;;;;;19.04;47.24;100861.78;4988883;28;20085;-56
2022/04/14 03:17:14;;;;;;;0.98;0.30;;;;;;;19.03;47.30;100855.69;4988711;28;20026;-48
2022/04/14 03:19:40;;;;;;;0.70;0.35;;;;;;;19.03;47.28;100860.16;4988716;28;20022;-46
2022/04/14 03:22:05;;;;;;;0.85;0.40;;;;;;;19.03;47.34;100857.53;4987219;28;20066;-46
2022/04/14 03:24:31;;;;;;;1.67;0.50;;;;;;;19.03;47.51;100846.97;4988655;28;20117;-55
2022/04/14 03:26:57;;;;;;;1.75;0.35;;;;;;;19.03;47.60;100852.25;4988826;28;20474;-52
2022/04/14 03:29:22;;;;;;;1.38;0.30;;;;;;;19.02;47.73;100845.31;4987503;28;20489;-51
2022/04/14 03:31:48;;;;;;;0.50;0.30;;;;;;;19.01;47.86;100846.31;4988240;28;20115;-45
2022/04/14 03:34:13;;;;;;;1.95;0.40;;;;;;;19.01;47.94;100844.50;4987866;28;20417;-45
2022/04/14 03:36:39;;;;;;;1.38;0.40;;;;;;;19.01;48.07;100841.88;4988341;28;20284;-51
2022/04/14 03:39:05;;;;;;;1.15;0.35;;;;;;;19.01;48.52;100838.41;4988035;28;20030;-51
2022/04/14 03:41:30;;;;;;;3.55;0.38;;;;;;;19.00;48.39;100834.13;4987141;28;20089;-51
2022/04/14 03:43:57;;;;;;;1.52;0.65;;;;;;;19.00;48.40;100837.59;4987229;28;20061;-47
2022/04/14 03:46:22;;;;;;;1.40;0.50;;;;;;;19.00;48.42;100842.06;4987136;28;20045;-50
2022/04/14 03:48:48;;;;;;;1.05;0.30;;;;;;;18.99;48.35;100841.25;4987201;28;20041;-51
2022/04/14 03:51:17;;;;;;;3.33;0.30;;;;;;;18.99;48.43;100845.69;4987850;28;20105;-49
2022/04/14 03:53:44;;;;;;;2.30;0.30;;;;;;;18.98;48.30;100834.31;4986815;28;20035;-53
2022/04/14 03:56:10;;;;;;;1.50;0.40;;;;;;;18.98;48.52;100836.16;4987253;28;20459;-45
2022/04/14 03:58:36;;;;;;;2.58;0.40;;;;;;;18.97;48.49;100837.97;4986773;28;20034;-49
2022/04/14 04:01:02;;;;;;;1.75;0.60;;;;;;;18.96;48.42;100836.34;4987431;28;20058;-52
2022/04/14 04:03:27;;;;;;;2.05;0.30;;;;;;;18.96;48.32;100835.50;4987297;28;20061;-48
2022/04/14 04:05:53;;;;;;;3.03;0.60;;;;;;;18.96;48.19;100832.88;4987332;28;20404;-49
2022/04/14 04:08:18;;;;;;;1.15;0.43;;;;;;;18.96;48.13;100830.25;4987185;28;20077;-48
2022/04/14 04:10:44;;;;;;;0.80;0.30;;;;;;;18.95;48.08;100833.88;4987500;28;20026;-45
2022/04/14 04:13:10;;;;;;;3.42;0.40;;;;;;;18.95;48.07;100833.88;4987017;28;20042;-47
2022/04/14 04:15:36;;;;;;;2.92;0.60;;;;;;;18.95;48.07;100839.16;4987842;28;20109;-53
2022/04/14 04:18:04;;;;;;;1.45;0.40;;;;;;;18.94;48.06;100837.53;4986056;28;20529;-51
2022/04/14 04:20:30;;;;;;;1.23;0.40;;;;;;;18.95;48.25;100833.88;4986977;28;20165;-43
2022/04/14 04:22:55;;;;;;;2.13;0.30;;;;;;;18.94;48.09;100834.88;4986738;28;20129;-45
2022/04/14 04:25:21;;;;;;;1.30;0.50;;;;;;;18.94;48.06;100830.44;4987118;28;20042;-48
2022/04/14 04:27:47;;;;;;;1.17;0.40;;;;;;;18.95;47.97;100839.16;4987315;28;20032;-54
2022/04/14 04:30:12;;;;;;;1.00;0.40;;;;;;;18.95;48.14;100833.88;4986428;28;20442;-48
2022/04/14 04:32:39;;;;;;;2.83;0.88;;;;;;;18.95;48.06;100842.63;4986915;28;20037;-44
2022/04/14 04:35:06;;;;;;;2.13;0.40;;;;;;;18.95;48.25;100841.81;4987172;28;20304;-48
2022/04/14 04:37:32;;;;;;;0.90;0.40;;;;;;;18.96;48.57;100838.16;4986472;28;20061;-50
2022/04/14 04:39:57;;;;;;;1.35;0.40;;;;;;;18.96;48.29;100846.06;4985895;28;20034;-49
2022/04/14 04:42:23;;;;;;;1.10;0.40;;;;;;;18.96;48.44;100852.19;4986710;28;20081;-50
2022/04/14 04:44:48;;;;;;;1.80;0.60;;;;;;;18.98;48.50;100854.63;4987510;28;20073;-47
2022/04/14 04:47:14;;;;;;;3.67;0.40;;;;;;;18.98;48.24;100854.63;4987034;28;20359;-50
2022/04/14 04:49:39;;;;;;;4.07;0.30;;;;;;;18.98;48.54;100850.16;4986759;28;20113;-44
2022/04/14 04:52:05;;;;;;;1.05;0.40;;;;;;;18.98;48.46;100847.53;4987541;28;20030;-42
2022/04/14 04:54:30;;;;;;;2.05;0.50;;;;;;;18.99;48.55;100858.91;4986443;28;20491;-52
2022/04/14 04:56:56;;;;;;;2.28;0.50;;;;;;;19.00;48.55;100855.25;4986568;28;20035;-49
2022/04/14 04:59:21;;;;;;;1.67;0.40;;;;;;;19.00;48.50;100858.72;4987241;28;20030;-50
2022/04/14 05:01:47;;;;;;;3.25;0.38;;;;;;;19.00;48.46;100864.00;4985787;28;20077;-47
2022/04/14 05:04:13;;;;;;;2.95;0.45;;;;;;;19.01;48.52;100860.34;4986915;28;20034;-47
2022/04/14 05:06:39;;;;;;;3.10;0.40;;;;;;;19.00;48.42;100864.00;4986845;28;20045;-47
2022/04/14 05:09:05;;;;;;;1.33;0.50;;;;;;;19.01;48.33;100870.09;4986659;28;20231;-50
2022/04/14 05:11:30;;;;;;;0.80;0.30;;;;;;;19.00;48.26;100868.47;4987644;28;20367;-48
2022/04/14 05:13:56;;;;;;;3.35;0.47;;;;;;;18.99;48.31;100864.19;4986220;28;20134;-53
2022/04/14 05:16:21;;;;;;;1.10;0.40;;;;;;;18.98;48.39;100865.19;4986862;28;20518;-50
2022/04/14 05:18:47;;;;;;;1.58;0.30;;;;;;;18.98;48.10;100857.28;4986288;28;20313;-44
2022/04/14 05:21:13;;;;;;;0.80;0.30;;;;;;;18.98;48.24;100857.28;4986974;28;20035;-54
2022/04/14 05:23:38;;;;;;;2.20;0.43;;;;;;;18.98;48.05;100857.28;4986405;28;20367;-49
2022/04/14 05:26:04;;;;;;;2.30;0.50;;;;;;;18.97;48.25;100860.91;4987072;28;20037;-49
2022/04/14 05:28:29;;;;;;;1.40;0.50;;;;;;;18.97;48.19;100867.00;4986478;28;20093;-51
2022/04/14 05:30:55;;;;;;;1.20;0.40;;;;;;;18.98;48.15;100862.56;4986117;28;20038;-47
2022/04/14 05:33:20;;;;;;;0.90;0.30;;;;;;;18.98;48.67;100873.09;4987053;28;20039;-50
2022/04/14 05:35:46;;;;;;;1.15;0.47;;;;;;;18.98;48.28;100865.19;4986560;28;20457;-51
2022/04/14 05:38:11;;;;;;;2.55;0.32;;;;;;;18.99;48.23;100869.47;4984855;28;20027;-47
2022/04/14 05:40:41;;;;;;;1.38;0.65;;;;;;;18.98;48.18;100865.19;4986210;28;20034;-48
2022/04/14 05:43:28;;;;;;;2.42;0.47;;;;;;;18.95;48.26;100855.00;4986443;28;20023;-53
2022/04/14 05:45:55;;;;;;;0.73;0.30;;;;;;;18.97;48.32;100863.56;4986087;28;20045;-46
2022/04/14 05:48:20;;;;;;;1.83;0.40;;;;;;;18.97;48.18;100863.56;4986425;28;20036;-44
2022/04/14 05:50:47;;;;;;;1.05;0.40;;;;;;;18.95;48.27;100853.19;4987231;28;20038;-49
2022/04/14 05:53:13;;;;;;;2.22;0.43;;;;;;;18.96;48.16;100854.00;4990382;28;20027;-46
2022/04/14 05:55:41;;;;;;;2.10;0.40;;;;;;;18.95;48.14;100855.81;4989776;28;20065;-49
2022/04/14 05:58:07;;;;;;;0.93;0.30;;;;;;;18.95;48.13;100855.00;4985819;28;20045;-52
2022/04/14 06:00:34;;;;;;;1.27;0.63;;;;;;;18.95;48.10;100849.72;4989339;28;20085;-45
2022/04/14 06:03:00;;;;;;;0.77;0.32;;;;;;;18.95;48.05;100857.66;4989440;28;20026;-53
2022/04/14 06:05:30;;;;;;;1.65;0.50;;;;;;;18.93;48.12;100851.75;4989235;28;20037;-45
2022/04/14 06:07:56;;;;;;;1.27;0.50;;;;;;;18.93;48.07;100849.09;4988989;28;20038;-46
2022/04/14 06:10:23;;;;;;;1.70;0.40;;;;;;;18.92;48.02;100844.81;4989544;28;20074;-46
2022/04/14 06:12:49;;;;;;;1.08;0.47;;;;;;;18.93;48.00;100851.75;4989208;28;20046;-46
2022/04/14 06:15:16;;;;;;;2.28;0.63;;;;;;;18.93;47.97;100849.91;4989525;28;20038;-48
2022/04/14 06:17:42;;;;;;;2.10;0.45;;;;;;;18.94;48.26;100858.66;4988432;28;20557;-48
2022/04/14 06:20:09;;;;;;;2.45;0.65;;;;;;;18.95;49.05;100852.38;4989015;28;20038;-50
2022/04/14 06:22:41;;;;;;;1.10;0.43;;;;;;;18.97;49.75;100858.28;4989217;28;20034;-49
2022/04/14 06:25:12;;;;;;;4.22;0.60;;;;;;;19.03;49.97;100857.53;4988645;28;20038;-48
2022/04/14 06:27:42;;;;;;;2.72;0.80;;;;;;;19.06;50.67;100863.25;4988727;28;20647;-46
2022/04/14 06:30:15;;;;;;;4.00;0.98;;;;;;;19.06;50.71;100862.41;4988645;28;20030;-46
2022/04/14 06:32:41;;;;;;;3.20;0.50;;;;;;;19.07;51.23;100859.59;4988781;28;20185;-50
2022/04/14 06:35:12;;;;;;;4.20;0.50;;;;;;;19.09;51.26;100864.69;4988383;28;20050;-47
2022/04/14 06:37:37;;;;;;;0.95;0.30;;;;;;;19.09;51.67;100864.69;4988413;28;20509;-49
2022/04/14 06:40:03;;;;;;;1.42;0.40;;;;;;;19.11;51.59;100857.38;4988264;28;20034;-42
2022/04/14 06:42:29;;;;;;;1.52;0.63;;;;;;;19.11;51.38;100860.03;4988614;28;20130;-45
2022/04/14 06:44:59;;;;;;;5.65;0.80;;;;;;;19.11;50.93;100854.75;4988012;28;20545;-43
2022/04/14 06:47:25;;;;;;;3.05;1.13;;;;;;;19.11;50.68;100860.03;4988406;28;20385;-44
2022/04/14 06:49:51;;;;;;;4.05;0.32;;;;;;;19.10;50.67;100858.41;4988701;28;20062;-49
2022/04/14 06:52:17;;;;;;;3.40;0.60;;;;;;;19.08;50.41;100866.50;4988964;28;20062;-50
2022/04/14 06:54:43;;;;;;;3.88;0.50;;;;;;;19.10;50.17;100863.69;4988779;28;20038;-46
2022/04/14 06:57:09;;;;;;;1.67;0.60;;;;;;;19.08;50.04;100866.50;4988346;28;20072;-45
2022/04/14 06:59:34;;;;;;;3.03;0.40;;;;;;;19.08;49.95;100860.41;4988560;28;20070;-53
2022/04/14 07:02:00;;;;;;;2.65;0.43;;;;;;;19.09;49.85;100864.69;4988163;28;20425;-56
2022/04/14 07:04:25;;;;;;;3.72;0.50;;;;;;;19.09;50.46;100859.41;4988388;28;20038;-49
2022/04/14 07:06:51;;;;;;;5.15;0.60;;;;;;;19.11;50.70;100860.03;4988117;28;20042;-54
2022/04/14 07:09:17;;;;;;;4.32;0.40;;;;;;;19.10;50.64;100855.75;4988345;28;20026;-54
2022/04/14 07:11:42;;;;;;;7.30;1.02;;;;;;;19.09;50.84;100857.59;4987286;28;20038;-53
2022/04/14 07:14:08;;;;;;;7.95;0.90;;;;;;;19.11;50.79;100854.75;4988779;28;20046;-54
2022/04/14 07:16:33;;;;;;;5.75;0.50;;;;;;;19.10;51.00;100859.22;4988331;28;20382;-50
2022/04/14 07:18:59;;;;;;;3.15;0.50;;;;;;;19.10;51.20;100863.69;4988245;28;20022;-53
2022/04/14 07:21:24;;;;;;;7.10;0.55;;;;;;;19.08;51.32;100863.06;4988921;28;20026;-53
2022/04/14 07:23:49;;;;;;;3.90;0.52;;;;;;;19.09;51.25;100859.41;4989603;28;20081;-48
2022/04/14 07:26:15;;;;;;;1.20;0.30;;;;;;;19.08;51.24;100855.13;4988974;28;20030;-49
2022/04/14 07:28:40;;;;;;;6.18;0.50;;;;;;;19.08;51.27;100863.06;4988263;28;20462;-51
2022/04/14 07:31:06;;;;;;;3.08;0.68;;;;;;;19.06;51.28;100872.97;4988386;28;20053;-50
2022/04/14 07:33:31;;;;;;;2.40;0.30;;;;;;;19.04;51.15;100867.06;4987794;28;20049;-49
2022/04/14 07:35:57;;;;;;;3.88;0.57;;;;;;;19.04;50.98;100870.53;4987895;28;20034;-47
2022/04/14 07:38:22;;;;;;;2.40;0.50;;;;;;;19.04;50.64;100875.00;4988055;28;20030;-51
2022/04/14 07:40:49;;;;;;;3.92;0.55;;;;;;;19.04;50.80;100870.53;4988271;28;20032;-49
2022/04/14 07:43:14;;;;;;;3.80;0.60;;;;;;;19.06;50.47;100870.34;4986421;28;20063;-49
2022/04/14 07:45:42;;;;;;;2.70;0.40;;;;;;;19.07;50.61;100880.72;4988165;28;20478;-50
2022/04/14 07:48:08;;;;;;;1.83;0.40;;;;;;;19.07;50.45;100879.91;4988157;28;20037;-55
2022/04/14 07:53:05;;;;;;;2.08;0.50;;;;;;;19.07;50.29;100874.63;5006263;23;20393;-49
2022/04/14 07:55:32;;;;;;;4.75;0.40;;;;;;;19.08;50.37;100871.78;5024534;28;20092;-53
2022/04/14 07:58:06;;;;;;;2.72;0.60;;;;;;;19.06;50.29;100875.63;5025053;28;20029;-52
2022/04/14 08:00:33;;;;;;;1.90;0.40;;;;;;;19.06;50.25;100875.63;5024689;28;20037;-51
2022/04/14 08:03:00;;;;;;;6.65;0.40;;;;;;;19.07;50.24;100880.72;5026423;28;20025;-51
2022/04/14 08:05:32;;;;;;;4.10;0.40;;;;;;;19.04;50.11;100883.75;5024449;28;20128;-53
2022/04/14 08:07:58;;;;;;;3.13;0.40;;;;;;;19.04;50.24;100877.63;5022602;28;20440;-53
2022/04/14 08:10:23;;;;;;;2.95;0.40;;;;;;;19.05;49.96;100882.72;5024337;28;20034;-49
2022/04/14 08:12:49;;;;;;;2.45;0.50;;;;;;;19.05;50.29;100874.81;5026174;28;20025;-49
2022/04/14 08:15:15;;;;;;;1.80;0.40;;;;;;;19.09;51.19;100875.25;5024727;28;20036;-54
2022/04/14 08:17:41;;;;;;;3.33;0.63;;;;;;;19.14;51.66;100880.78;5024177;28;20072;-49
2022/04/14 08:20:08;;;;;;;6.78;0.65;;;;;;;19.15;51.60;100877.94;5022979;28;20029;-59
2022/04/14 08:22:50;;;;;;;2.08;0.30;;;;;;;19.12;51.45;100875.69;5020228;28;20029;-59
2022/04/14 08:25:18;;;;;;;3.78;0.90;;;;;;;19.12;51.33;100882.78;5011430;28;20069;-57
2022/04/14 08:27:44;;;;;;;1.10;0.40;;;;;;;19.11;51.22;100886.44;5026446;28;20032;-54
2022/04/14 08:30:10;;;;;;;2.05;0.57;;;;;;;19.09;51.19;100884.00;5022003;28;20518;-52
2022/04/14 08:32:36;;;;;;;1.30;0.43;;;;;;;19.09;50.95;100884.00;5009087;28;20041;-58
2022/04/14 08:35:03;;;;;;;3.17;0.40;;;;;;;19.07;50.63;100885.19;5015626;28;20029;-52
2022/04/14 08:37:29;;;;;;;3.03;0.52;;;;;;;19.09;50.41;100886.63;5006867;28;20056;-58
2022/04/14 08:39:54;;;;;;;1.35;0.50;;;;;;;19.09;50.29;100877.88;5004679;28;20057;-57
2022/04/14 08:42:25;;;;;;;4.10;1.00;;;;;;;19.09;50.02;100878.72;5007593;28;20105;-56
2022/04/14 08:45:00;;;;;;;3.20;0.70;;;;;;;19.09;49.81;100881.34;5004657;28;20521;-56
2022/04/14 08:47:29;;;;;;;4.15;0.60;;;;;;;19.11;49.58;100886.44;5005053;28;20167;-54
2022/04/14 08:49:56;;;;;;;2.83;0.90;;;;;;;19.13;49.09;100873.88;5008847;28;20033;-49
2022/04/14 08:52:22;;;;;;;2.67;0.63;;;;;;;19.15;49.21;100875.31;5012297;28;20053;-56
2022/04/14 08:54:49;;;;;;;1.98;0.73;;;;;;;19.16;49.15;100884.03;5007970;28;20036;-57
2022/04/14 08:57:15;;;;;;;2.67;0.73;;;;;;;19.15;49.34;100880.59;5011829;28;20061;-49
2022/04/14 08:59:45;;;;;;;7.65;0.88;;;;;;;19.17;48.46;100883.03;5020378;28;20072;-53
2022/04/14 09:02:16;;;;;;;3.03;0.98;;;;;;;19.18;48.13;100880.22;5006810;28;20489;-51
2022/04/14 09:04:42;;;;;;;5.40;1.00;;;;;;;19.17;48.19;100885.69;5012662;28;20113;-49
2022/04/14 09:07:08;;;;;;;2.88;0.88;;;;;;;19.16;47.76;100890.16;5012733;28;20459;-52
2022/04/14 09:09:34;;;;;;;9.27;1.02;;;;;;;19.16;47.74;100881.41;5021262;28;20188;-52
2022/04/14 09:11:59;;;;;;;2.92;0.70;;;;;;;19.14;47.83;100878.97;5006599;28;20382;-50
2022/04/14 09:14:25;;;;;;;5.82;1.30;;;;;;;19.13;47.63;100879.97;5004151;28;20029;-49
2022/04/14 09:16:51;;;;;;;3.70;0.65;;;;;;;19.15;47.80;100885.06;5004927;28;20109;-53
2022/04/14 09:19:17;;;;;;;1.55;0.70;;;;;;;19.12;47.48;100877.50;5004693;28;20179;-61
2022/04/14 09:22:08;;;;;;;3.20;0.70;;;;;;;19.07;47.34;100875.44;5012732;28;20467;-63
2022/04/14 09:24:41;;;;;;;4.32;1.20;;;;;;;19.07;47.11;100875.44;5012364;28;20436;-55
2022/04/14 09:27:08;;;;;;;3.30;0.98;;;;;;;19.07;46.93;100882.53;5011024;28;20052;-54
2022/04/14 09:29:33;;;;;;;2.40;1.38;;;;;;;19.07;46.62;100879.91;5010034;28;20571;-50
2022/04/14 09:31:59;;;;;;;6.10;0.90;;;;;;;19.08;47.06;100878.91;5008291;28;20030;-58
2022/04/14 09:34:51;;;;;;;4.43;1.00;;;;;;;19.06;47.11;100879.09;5007278;28;20037;-59
2022/04/14 09:37:18;;;;;;;2.28;0.80;;;;;;;19.07;46.78;100874.63;5027387;28;20172;-58
2022/04/14 09:39:55;;;;;;;3.22;1.05;;;;;;;19.06;46.52;100872.97;5011029;28;20033;-60
2022/04/14 09:42:22;;;;;;;3.70;0.95;;;;;;;19.06;46.55;100862.41;5008677;28;20095;-54
2022/04/14 09:44:48;;;;;;;1.40;0.75;;;;;;;19.06;46.37;100859.78;5014870;28;20025;-55
2022/04/14 09:47:24;;;;;;;2.47;0.90;;;;;;;19.02;46.13;100856.69;5012581;28;20578;-53
2022/04/14 09:49:50;;;;;;;5.88;1.20;;;;;;;19.04;46.06;100859.97;5010651;28;20025;-53
2022/04/14 09:52:15;;;;;;;3.47;1.10;;;;;;;19.07;45.85;100858.78;5015548;28;20444;-59
2022/04/14 09:54:40;;;;;;;3.60;0.93;;;;;;;19.06;45.91;100857.97;5023816;28;20032;-57
2022/04/14 09:57:10;;;;;;;1.90;0.93;;;;;;;19.08;45.57;100852.50;5013900;28;20053;-55
2022/04/14 09:59:37;;;;;;;3.20;0.85;;;;;;;19.10;45.60;100855.75;5009247;28;20080;-53
2022/04/14 10:02:16;;;;;;;2.10;0.68;;;;;;;19.08;45.47;100850.66;5008208;28;20620;-55
2022/04/14 10:04:45;;;;;;;2.25;0.70;;;;;;;19.08;45.47;100855.94;5008866;28;20049;-52
2022/04/14 10:07:23;;;;;;;17.77;2.95;;;;;;;19.17;49.74;100851.34;5022613;28;20391;-54
2022/04/14 10:09:50;;;;;;;12.30;2.65;;;;;;;19.20;51.64;100856.25;5016077;28;20387;-50
2022/04/14 10:12:22;;;;;;;4.43;1.30;;;;;;;19.21;52.00;100856.06;5017833;28;20380;-52
2022/04/14 10:14:56;;;;;;;6.45;1.30;;;;;;;19.19;51.50;100851.97;5010860;28;20121;-55
2022/04/14 10:17:26;;;;;;;6.05;1.08;;;;;;;19.16;51.20;100849.72;5023934;28;20045;-48
2022/04/14 10:19:53;;;;;;;4.80;1.20;;;;;;;19.15;50.66;100840.16;5013647;28;20048;-51
2022/04/14 10:22:19;;;;;;;6.30;1.25;;;;;;;19.14;51.50;100849.91;5025983;28;20056;-55
2022/04/14 10:24:46;;;;;;;3.42;0.98;;;;;;;19.16;52.25;100858.47;5028591;28;20034;-54
2022/04/14 10:27:13;;;;;;;1.98;0.80;;;;;;;19.15;51.94;100854.19;5023943;28;20030;-52
2022/04/14 10:29:40;;;;;;;10.35;1.23;;;;;;;19.14;51.16;100849.91;5011467;28;20032;-50
2022/04/14 10:32:07;;;;;;;2.88;0.80;;;;;;;19.15;50.97;100853.38;5017745;28;20215;-52
2022/04/14 10:34:34;;;;;;;2.45;0.85;;;;;;;19.15;50.50;100851.53;5019265;28;20393;-55
2022/04/14 10:37:03;;;;;;;5.50;1.10;;;;;;;19.16;50.24;100849.72;5017787;28;20129;-56
2022/04/14 10:39:31;;;;;;;3.55;1.05;;;;;;;19.17;49.79;100848.72;5021228;28;20033;-55
2022/04/14 10:41:57;;;;;;;5.63;1.05;;;;;;;19.17;49.51;100849.53;5010198;28;20077;-55
2022/04/14 10:44:23;;;;;;;2.13;0.80;;;;;;;19.19;49.20;100851.97;5013965;28;20037;-56
2022/04/14 10:46:51;;;;;;;2.47;1.05;;;;;;;19.19;49.00;100841.41;5031527;28;20028;-56
2022/04/14 10:49:25;;;;;;;5.90;0.88;;;;;;;19.17;48.83;100852.16;5010074;28;20049;-56
2022/04/14 10:51:54;;;;;;;4.32;1.10;;;;;;;19.19;48.67;100855.44;5018887;28;20050;-55
2022/04/14 10:54:19;;;;;;;2.50;0.90;;;;;;;19.21;48.43;100849.97;5018051;28;20072;-55
2022/04/14 10:56:47;;;;;;;3.95;1.00;;;;;;;19.23;48.30;100858.50;5017579;28;20064;-57
2022/04/14 10:59:29;;;;;;;2.65;0.90;;;;;;;19.23;48.13;100847.94;5017042;28;20121;-53
2022/04/14 11:01:58;;;;;;;4.07;1.35;;;;;;;19.26;48.06;100852.03;5022129;28;20068;-54
2022/04/14 11:04:27;;;;;;;2.40;0.80;;;;;;;19.26;47.96;100850.22;5018629;28;20129;-54
2022/04/14 11:06:59;;;;;;;4.50;1.00;;;;;;;19.25;48.05;100856.50;5021227;28;20033;-52
2022/04/14 11:09:42;;;;;;;1.70;0.80;;;;;;;19.22;48.08;100862.16;5028252;28;20550;-55
2022/04/14 11:12:24;;;;;;;2.90;0.88;;;;;;;19.24;47.82;100852.22;5007769;28;20025;-52
2022/04/14 11:14:55;;;;;;;3.97;0.80;;;;;;;19.24;47.96;100854.88;5012488;28;20117;-57
2022/04/14 11:17:48;;;;;;;2.45;0.70;;;;;;;19.22;47.86;100841.03;5018295;28;20164;-56
2022/04/14 11:20:23;;;;;;;1.83;0.80;;;;;;;19.21;47.75;100849.97;5021085;28;20254;-56
2022/04/14 11:23:13;;;;;;;2.50;0.73;;;;;;;19.19;47.65;100844.88;5021107;28;20030;-53
2022/04/14 11:25:39;;;;;;;2.20;0.60;;;;;;;19.20;47.60;100845.69;5012632;28;20465;-55
2022/04/14 11:28:43;;;;;;;2.67;1.00;;;;;;;19.19;47.63;100834.31;5015291;28;20034;-53